Newfields, New Hampshire
Current Conditions -  °F | °C
As of 6:58 AM on Friday 31 Oct 2014 (Local Time) from KPSM Reporting Station
Broken Clouds Broken Clouds  
Wind Chill: 41°   Ceiling: 5500
Heat Index: 41°   Visibility: 10mi
Dew Point: 35°   Wind: 2mph
Humidity: 77%   Direction: 330°NNW
Pressure: 30.03"   Gusts: NA
Location:  43.04°N, 70.94°W
Report Text: KPSM 311058Z 33002KT 10SM BKN055 05/01 A3003 RMK AO2A SLP173 T00510014
Loading
Personal Weather Stations






























Interactive Weather Map
Tropical Storm Tracking
New forecast layout! Learn more

10-Day Weather Forecast

Advertisements
Track Severe Weather on mobile